createdAt,value
2024-05-09T00:00:48.068Z,14.11
2024-05-09T00:03:36.386Z,14.06
2024-05-09T00:06:04.945Z,14.06
2024-05-09T00:08:33.169Z,14.04
2024-05-09T00:11:01.504Z,14.01
2024-05-09T00:13:32.736Z,14.01
2024-05-09T00:16:00.899Z,14.04
2024-05-09T00:18:29.176Z,14.11
2024-05-09T00:20:57.446Z,14.05
2024-05-09T00:23:45.698Z,14.01
2024-05-09T00:26:17.499Z,13.96
2024-05-09T00:28:45.754Z,13.91
2024-05-09T00:31:13.868Z,13.95
2024-05-09T00:33:42.283Z,13.98
2024-05-09T00:36:10.500Z,13.95
2024-05-09T00:38:38.498Z,13.94
2024-05-09T00:41:06.765Z,13.89
2024-05-09T00:43:34.650Z,13.87
2024-05-09T00:46:02.933Z,13.81
2024-05-09T00:48:31.603Z,13.82
2024-05-09T00:51:00.842Z,13.81
2024-05-09T00:53:29.587Z,13.81
2024-05-09T00:55:58.899Z,13.81
2024-05-09T00:58:30.337Z,13.81
2024-05-09T01:01:01.514Z,13.78
2024-05-09T01:03:30.198Z,13.73
2024-05-09T01:05:58.557Z,13.72
2024-05-09T01:08:27.092Z,13.73
2024-05-09T01:10:55.278Z,13.75
2024-05-09T01:13:23.389Z,13.76
2024-05-09T01:15:53.633Z,13.75
2024-05-09T01:18:21.996Z,13.75
2024-05-09T01:20:50.273Z,13.71
2024-05-09T01:23:18.268Z,13.71
2024-05-09T01:25:48.909Z,13.65
2024-05-09T01:28:16.906Z,13.68
2024-05-09T01:30:44.999Z,13.70
2024-05-09T01:33:13.708Z,13.74
2024-05-09T01:35:43.002Z,13.70
2024-05-09T01:38:13.849Z,13.70
2024-05-09T01:40:43.284Z,13.68
2024-05-09T01:43:15.843Z,13.61
2024-05-09T01:45:44.209Z,13.62
2024-05-09T01:48:13.092Z,13.65
2024-05-09T01:50:43.204Z,13.67
2024-05-09T01:53:15.091Z,13.61
2024-05-09T01:55:44.296Z,13.59
2024-05-09T01:58:15.371Z,13.56
2024-05-09T02:00:43.928Z,13.55
2024-05-09T02:03:16.366Z,13.59
2024-05-09T02:05:49.786Z,13.65
2024-05-09T02:08:20.925Z,13.63
2024-05-09T02:10:50.749Z,13.59
2024-05-09T02:13:19.527Z,13.56
2024-05-09T02:15:51.890Z,13.55
2024-05-09T02:18:23.474Z,13.56
2024-05-09T02:20:52.113Z,13.57
2024-05-09T02:23:20.739Z,13.60
2024-05-09T02:25:48.821Z,13.61
2024-05-09T02:28:16.955Z,13.60
2024-05-09T02:30:45.052Z,13.60
2024-05-09T02:33:16.671Z,13.61
2024-05-09T02:35:49.893Z,13.60
2024-05-09T02:38:18.443Z,13.58
2024-05-09T02:40:52.366Z,13.60
2024-05-09T02:43:20.818Z,13.63
2024-05-09T02:45:48.947Z,13.68
2024-05-09T02:48:20.022Z,13.63
2024-05-09T02:50:49.087Z,13.61
2024-05-09T02:53:19.580Z,13.62
2024-05-09T02:55:50.857Z,13.55
2024-05-09T02:58:18.953Z,13.51
2024-05-09T03:00:47.521Z,13.55
2024-05-09T03:03:18.485Z,13.58
2024-05-09T03:05:47.335Z,13.57
2024-05-09T03:08:15.805Z,13.61
2024-05-09T03:10:46.460Z,13.58
2024-05-09T03:13:23.950Z,13.54
2024-05-09T03:15:52.114Z,13.51
2024-05-09T03:18:25.461Z,13.50
2024-05-09T03:21:05.035Z,13.54
2024-05-09T03:23:37.134Z,13.56
2024-05-09T03:26:13.129Z,13.58
2024-05-09T03:28:44.202Z,13.60
2024-05-09T03:31:18.048Z,13.57
2024-05-09T03:33:48.527Z,13.58
2024-05-09T03:36:16.661Z,13.56
2024-05-09T03:38:45.095Z,13.54
2024-05-09T03:41:13.458Z,13.54
2024-05-09T03:43:44.434Z,13.58
2024-05-09T03:46:19.946Z,13.63
2024-05-09T03:48:48.199Z,13.62
2024-05-09T03:51:16.505Z,13.60
2024-05-09T03:53:48.054Z,13.59
2024-05-09T03:56:16.387Z,13.54
2024-05-09T03:58:44.756Z,13.54
2024-05-09T04:01:33.099Z,13.55
2024-05-09T04:04:01.453Z,13.54
2024-05-09T04:06:32.495Z,13.52
2024-05-09T04:09:05.038Z,13.57
2024-05-09T04:11:33.782Z,13.60
2024-05-09T04:14:25.243Z,13.60
2024-05-09T04:16:56.005Z,13.58
2024-05-09T04:19:24.654Z,13.59
2024-05-09T04:21:57.284Z,13.58
2024-05-09T04:24:25.474Z,13.59
2024-05-09T04:26:59.462Z,13.56
2024-05-09T04:29:27.848Z,13.58
2024-05-09T04:31:59.091Z,13.56
2024-05-09T04:34:30.632Z,13.54
2024-05-09T04:37:01.289Z,13.56
2024-05-09T04:39:29.377Z,13.60
2024-05-09T04:42:07.157Z,13.59
2024-05-09T04:45:12.840Z,13.59
2024-05-09T04:47:41.352Z,13.60
2024-05-09T04:50:14.513Z,13.60
2024-05-09T04:52:43.062Z,13.58
2024-05-09T04:55:13.999Z,13.57
2024-05-09T04:57:42.416Z,13.55
2024-05-09T05:00:14.890Z,13.48
2024-05-09T05:02:59.179Z,13.46
2024-05-09T05:05:30.221Z,13.47
2024-05-09T05:07:58.209Z,13.47
2024-05-09T05:10:36.105Z,13.45
2024-05-09T05:13:21.238Z,13.43
2024-05-09T05:15:57.504Z,13.45
2024-05-09T05:18:27.957Z,13.48
2024-05-09T05:20:58.220Z,13.52
2024-05-09T05:23:26.761Z,13.54
2024-05-09T05:25:55.480Z,13.55
2024-05-09T05:28:24.134Z,13.57
2024-05-09T05:30:55.635Z,13.58
2024-05-09T05:33:24.489Z,13.60
2024-05-09T05:35:56.549Z,13.60
2024-05-09T05:38:27.986Z,13.62
2024-05-09T05:40:56.755Z,13.64
2024-05-09T05:43:25.214Z,13.65
2024-05-09T05:45:53.296Z,13.69
2024-05-09T05:48:22.159Z,13.72
2024-05-09T05:50:50.808Z,13.73
2024-05-09T05:53:19.097Z,13.77
2024-05-09T05:55:50.339Z,13.85
2024-05-09T05:58:19.969Z,13.91
2024-05-09T06:00:48.190Z,13.95
2024-05-09T06:03:18.660Z,14.02
2024-05-09T06:05:47.066Z,14.08
2024-05-09T06:08:21.928Z,14.11
2024-05-09T06:10:50.358Z,14.19
2024-05-09T06:13:18.705Z,14.24
2024-05-09T06:15:46.892Z,14.24
2024-05-09T06:18:15.325Z,14.26
2024-05-09T06:20:44.468Z,14.31
2024-05-09T06:23:13.904Z,14.39
2024-05-09T06:25:43.618Z,14.50
2024-05-09T06:28:11.761Z,14.59
2024-05-09T06:30:41.968Z,14.66
2024-05-09T06:33:13.944Z,14.67
2024-05-09T06:35:58.957Z,14.65
2024-05-09T06:38:27.706Z,14.60
2024-05-09T06:40:55.736Z,14.54
2024-05-09T06:43:23.756Z,14.50
2024-05-09T06:45:52.841Z,14.49
2024-05-09T06:48:28.992Z,14.45
2024-05-09T06:50:57.695Z,14.41
2024-05-09T06:53:25.743Z,14.39
2024-05-09T06:55:54.131Z,14.36
2024-05-09T06:58:24.768Z,14.31
2024-05-09T07:00:53.096Z,14.28
2024-05-09T07:03:21.640Z,14.25
2024-05-09T07:05:50.400Z,14.23
2024-05-09T07:08:19.391Z,14.23
2024-05-09T07:10:48.264Z,14.20
2024-05-09T07:13:16.565Z,14.11
2024-05-09T07:15:44.481Z,14.08
2024-05-09T07:18:17.303Z,14.06
2024-05-09T07:20:49.022Z,14.06
2024-05-09T07:23:18.434Z,14.07
2024-05-09T07:25:49.666Z,14.02
2024-05-09T07:28:20.754Z,14.01
2024-05-09T07:30:48.966Z,14.05
2024-05-09T07:33:24.116Z,13.99
2024-05-09T07:35:53.472Z,13.93
2024-05-09T07:38:21.754Z,13.91
2024-05-09T07:40:50.425Z,13.93
2024-05-09T07:43:18.712Z,13.92
2024-05-09T07:45:58.366Z,13.91
2024-05-09T07:50:01.331Z,13.89
2024-05-09T07:53:14.245Z,13.92
2024-05-09T07:54:26.330Z,13.93
2024-05-09T07:56:55.267Z,13.92
2024-05-09T07:59:43.770Z,13.85
2024-05-09T08:02:12.241Z,13.85
2024-05-09T08:04:40.670Z,13.85
2024-05-09T08:07:27.486Z,13.79
2024-05-09T08:10:43.039Z,13.76
2024-05-09T08:13:20.306Z,13.76
2024-05-09T08:15:52.601Z,13.72
2024-05-09T08:18:23.756Z,13.73
2024-05-09T08:20:55.446Z,13.75
2024-05-09T08:23:25.078Z,13.77
2024-05-09T08:25:53.489Z,13.77
2024-05-09T08:28:21.970Z,13.78
2024-05-09T08:30:50.465Z,13.82
2024-05-09T08:33:18.786Z,13.86
2024-05-09T08:35:47.090Z,13.91
2024-05-09T08:38:15.207Z,13.99
2024-05-09T08:40:43.591Z,14.02
2024-05-09T08:43:13.943Z,14.05
2024-05-09T08:45:43.851Z,14.04
2024-05-09T08:48:15.603Z,14.03
2024-05-09T08:50:45.788Z,14.01
2024-05-09T08:53:15.583Z,14.00
2024-05-09T08:55:46.343Z,13.97
2024-05-09T08:58:19.372Z,13.99
2024-05-09T09:00:48.949Z,14.02
2024-05-09T09:03:24.965Z,14.04
2024-05-09T09:06:07.091Z,14.07
2024-05-09T09:08:38.781Z,14.10
2024-05-09T09:11:10.673Z,14.12
2024-05-09T09:13:45.112Z,14.16
2024-05-09T09:16:17.851Z,14.17
2024-05-09T09:18:53.224Z,14.25
2024-05-09T09:21:32.773Z,14.31
2024-05-09T09:24:05.019Z,14.29
2024-05-09T09:26:39.093Z,14.29
2024-05-09T09:29:07.655Z,14.27
2024-05-09T09:31:37.279Z,14.26
2024-05-09T09:34:07.632Z,14.23
2024-05-09T09:36:38.807Z,14.22
2024-05-09T09:39:12.294Z,14.22
2024-05-09T09:41:47.775Z,14.21
2024-05-09T09:44:58.122Z,14.22
2024-05-09T09:47:56.820Z,14.27
2024-05-09T09:50:35.246Z,14.29
2024-05-09T09:53:10.025Z,14.32
2024-05-09T09:56:00.878Z,14.38
2024-05-09T09:58:34.824Z,14.42
2024-05-09T10:01:06.419Z,14.44
2024-05-09T10:03:41.063Z,14.45
2024-05-09T10:06:31.666Z,14.44
2024-05-09T10:09:22.683Z,14.44
2024-05-09T10:12:09.731Z,14.38
2024-05-09T10:14:49.061Z,14.41
2024-05-09T10:17:24.486Z,14.45
2024-05-09T10:20:11.880Z,14.46
2024-05-09T10:22:50.158Z,14.43
2024-05-09T10:25:24.976Z,14.37
2024-05-09T10:27:58.570Z,14.37
2024-05-09T10:30:36.102Z,14.37
2024-05-09T10:33:11.298Z,14.42
2024-05-09T10:35:51.505Z,14.47
2024-05-09T10:38:22.165Z,14.49
2024-05-09T10:40:59.918Z,14.50
2024-05-09T10:43:35.378Z,14.54
2024-05-09T10:46:07.726Z,14.62
2024-05-09T10:48:36.917Z,14.69
2024-05-09T10:51:08.444Z,14.77
2024-05-09T10:53:43.291Z,14.86
2024-05-09T10:56:13.817Z,14.88
2024-05-09T10:58:45.183Z,14.90
2024-05-09T11:01:16.842Z,14.93
2024-05-09T11:03:48.835Z,15.00
2024-05-09T11:06:18.210Z,15.04
2024-05-09T11:08:47.320Z,15.09
2024-05-09T11:11:16.466Z,15.13
2024-05-09T11:13:47.702Z,15.16
2024-05-09T11:16:23.558Z,15.23
2024-05-09T11:18:55.761Z,15.32
2024-05-09T11:21:27.522Z,15.34
2024-05-09T11:23:59.041Z,15.39
2024-05-09T11:26:30.576Z,15.43
2024-05-09T11:29:19.672Z,15.50
2024-05-09T11:31:53.738Z,15.53
2024-05-09T11:34:22.105Z,15.53
2024-05-09T11:36:50.282Z,15.57
2024-05-09T11:39:18.436Z,15.61
2024-05-09T11:41:46.424Z,15.66
2024-05-09T11:44:14.443Z,15.77
2024-05-09T11:46:43.473Z,15.82
2024-05-09T11:49:11.711Z,15.84
2024-05-09T11:51:40.308Z,15.82
2024-05-09T11:54:08.966Z,15.78
2024-05-09T11:56:38.398Z,15.78
2024-05-09T11:59:06.401Z,15.77
2024-05-09T12:01:34.641Z,15.75
2024-05-09T12:04:05.227Z,15.71
2024-05-09T12:06:34.034Z,15.66
2024-05-09T12:09:02.018Z,15.64
2024-05-09T12:11:30.300Z,15.67
2024-05-09T12:13:58.629Z,15.75
2024-05-09T12:16:26.818Z,15.82
2024-05-09T12:18:55.419Z,15.79
2024-05-09T12:21:23.598Z,15.76
2024-05-09T12:23:51.527Z,15.76
2024-05-09T12:26:19.367Z,15.75
2024-05-09T12:28:47.486Z,15.70
2024-05-09T12:31:15.650Z,15.70
2024-05-09T12:33:44.045Z,15.71
2024-05-09T12:36:12.496Z,15.73
2024-05-09T12:38:41.234Z,15.73
2024-05-09T12:41:10.222Z,15.77
2024-05-09T12:43:38.137Z,15.81
2024-05-09T12:46:06.539Z,15.86
2024-05-09T12:48:34.816Z,15.89
2024-05-09T12:51:03.062Z,15.83
2024-05-09T12:53:31.336Z,15.78
2024-05-09T12:56:02.368Z,15.75
2024-05-09T12:58:36.592Z,15.77
2024-05-09T13:01:05.029Z,15.83
2024-05-09T13:03:33.637Z,15.81
2024-05-09T13:06:01.969Z,15.83
2024-05-09T13:08:30.341Z,15.85
2024-05-09T13:10:58.961Z,15.86
2024-05-09T13:13:28.733Z,15.89
2024-05-09T13:15:57.116Z,15.85
2024-05-09T13:18:25.395Z,15.80
2024-05-09T13:20:53.558Z,15.76
2024-05-09T13:23:21.628Z,15.73
2024-05-09T13:25:49.691Z,15.72
2024-05-09T13:28:17.877Z,15.68
2024-05-09T13:30:46.361Z,15.64
2024-05-09T13:33:14.828Z,15.54
2024-05-09T13:35:47.293Z,15.44
2024-05-09T13:38:20.372Z,15.34
2024-05-09T13:40:50.553Z,15.32
2024-05-09T13:43:21.564Z,15.33
2024-05-09T13:45:50.035Z,15.32
2024-05-09T13:48:19.458Z,15.25
2024-05-09T13:50:48.303Z,15.23
2024-05-09T13:53:16.292Z,15.22
2024-05-09T13:55:44.805Z,15.24
2024-05-09T13:58:13.216Z,15.18
2024-05-09T14:00:46.876Z,15.11
2024-05-09T14:03:19.729Z,15.07
2024-05-09T14:05:51.151Z,15.03
2024-05-09T14:08:21.411Z,14.93
2024-05-09T14:10:50.090Z,14.91
2024-05-09T14:13:20.188Z,14.93
2024-05-09T14:15:51.280Z,14.96
2024-05-09T14:18:22.916Z,14.98
2024-05-09T14:20:51.108Z,14.98
2024-05-09T14:23:21.734Z,15.04
2024-05-09T14:25:53.247Z,15.12
2024-05-09T14:28:24.467Z,15.13
2024-05-09T14:30:52.961Z,15.06
2024-05-09T14:33:26.207Z,15.01
2024-05-09T14:35:54.998Z,14.95
2024-05-09T14:38:27.151Z,14.89
2024-05-09T14:40:58.013Z,14.91
2024-05-09T14:43:26.658Z,14.86
2024-05-09T14:45:55.781Z,14.80
2024-05-09T14:48:24.170Z,14.73
2024-05-09T14:50:52.724Z,14.68
2024-05-09T14:53:23.228Z,14.70
2024-05-09T14:55:54.742Z,14.70
2024-05-09T14:58:26.064Z,14.74
2024-05-09T15:01:10.444Z,14.73
2024-05-09T15:03:38.851Z,14.72
2024-05-09T15:06:07.227Z,14.72
2024-05-09T15:08:35.574Z,14.72
2024-05-09T15:11:05.808Z,14.79
2024-05-09T15:13:34.050Z,14.87
2024-05-09T15:16:02.531Z,14.85
2024-05-09T15:18:30.946Z,14.86
2024-05-09T15:20:59.529Z,14.84
2024-05-09T15:23:27.636Z,14.87
2024-05-09T15:25:55.763Z,14.93
2024-05-09T15:28:23.826Z,14.97
2024-05-09T15:30:52.214Z,14.99
2024-05-09T15:33:20.372Z,15.03
2024-05-09T15:35:48.293Z,15.04
2024-05-09T15:38:17.603Z,15.04
2024-05-09T15:40:45.913Z,15.05
2024-05-09T15:43:14.236Z,15.06
2024-05-09T15:45:42.416Z,15.07
2024-05-09T15:48:11.877Z,15.06
2024-05-09T15:50:42.750Z,15.06
2024-05-09T15:53:13.444Z,15.10
2024-05-09T15:55:43.090Z,15.13
2024-05-09T15:58:12.054Z,15.15
2024-05-09T16:00:44.152Z,15.14
2024-05-09T16:03:15.011Z,15.09
2024-05-09T16:05:45.801Z,15.02
2024-05-09T16:08:15.889Z,14.98
2024-05-09T16:10:45.857Z,14.98
2024-05-09T16:13:16.493Z,15.00
2024-05-09T16:15:45.894Z,15.02
2024-05-09T16:18:19.224Z,15.00
2024-05-09T16:20:49.533Z,14.94
2024-05-09T16:23:18.779Z,14.91
2024-05-09T16:25:47.448Z,14.88
2024-05-09T16:28:16.126Z,14.87
2024-05-09T16:30:44.561Z,14.87
2024-05-09T16:33:12.891Z,14.87
2024-05-09T16:35:41.309Z,14.89
2024-05-09T16:38:09.389Z,14.87
2024-05-09T16:40:40.417Z,14.85
2024-05-09T16:43:12.184Z,14.81
2024-05-09T16:45:44.588Z,14.78
2024-05-09T16:48:13.703Z,14.77
2024-05-09T16:50:42.263Z,14.76
2024-05-09T16:53:10.175Z,14.72
2024-05-09T16:55:38.486Z,14.74
2024-05-09T16:58:08.621Z,14.70
2024-05-09T17:00:41.942Z,14.69
2024-05-09T17:03:15.056Z,14.63
2024-05-09T17:05:46.629Z,14.62
2024-05-09T17:08:17.602Z,14.57
2024-05-09T17:10:48.211Z,14.55
2024-05-09T17:13:16.636Z,14.49
2024-05-09T17:15:45.492Z,14.40
2024-05-09T17:18:14.298Z,14.35
2024-05-09T17:20:42.289Z,14.30
2024-05-09T17:23:14.501Z,14.30
2024-05-09T17:25:43.444Z,14.28
2024-05-09T17:28:12.331Z,14.24
2024-05-09T17:30:42.580Z,14.18
2024-05-09T17:33:12.892Z,14.13
2024-05-09T17:35:41.998Z,14.10
2024-05-09T17:38:10.471Z,14.12
2024-05-09T17:40:39.297Z,14.11
2024-05-09T17:43:10.404Z,14.09
2024-05-09T17:45:41.069Z,14.04
2024-05-09T17:48:11.834Z,14.01
2024-05-09T17:50:41.922Z,13.97
2024-05-09T17:53:11.307Z,13.94
2024-05-09T17:55:40.488Z,13.93
2024-05-09T17:58:10.293Z,13.95
2024-05-09T18:00:42.663Z,13.92
2024-05-09T18:03:12.667Z,13.89
2024-05-09T18:05:48.732Z,13.87
2024-05-09T18:08:16.672Z,13.85
2024-05-09T18:10:48.205Z,13.85
2024-05-09T18:13:16.338Z,13.88
2024-05-09T18:15:52.043Z,13.90
2024-05-09T18:18:31.166Z,13.91
2024-05-09T18:20:59.494Z,13.86
2024-05-09T18:23:27.634Z,13.82
2024-05-09T18:26:11.748Z,13.70
2024-05-09T18:28:39.794Z,13.69
2024-05-09T18:31:25.532Z,13.64
2024-05-09T18:33:57.017Z,13.61
2024-05-09T18:36:47.931Z,13.57
2024-05-09T18:39:17.168Z,13.51
2024-05-09T18:41:45.351Z,13.45
2024-05-09T18:44:16.337Z,13.46
2024-05-09T18:46:47.903Z,13.45
2024-05-09T18:49:36.159Z,13.36
2024-05-09T18:52:04.454Z,13.27
2024-05-09T18:54:39.926Z,13.23
2024-05-09T18:57:08.420Z,13.26
2024-05-09T18:59:39.155Z,13.28
2024-05-09T19:02:09.817Z,13.28
2024-05-09T19:04:38.092Z,13.26
2024-05-09T19:07:06.293Z,13.21
2024-05-09T19:09:35.152Z,13.15
2024-05-09T19:12:06.179Z,13.10
2024-05-09T19:14:34.155Z,13.11
2024-05-09T19:17:02.314Z,13.08
2024-05-09T19:19:30.676Z,13.12
2024-05-09T19:21:59.193Z,13.10
2024-05-09T19:24:27.712Z,13.06
2024-05-09T19:26:56.774Z,13.04
2024-05-09T19:29:24.978Z,13.00
2024-05-09T19:31:53.256Z,12.98
2024-05-09T19:34:21.750Z,12.98
2024-05-09T19:36:50.034Z,13.03
2024-05-09T19:39:18.183Z,12.99
2024-05-09T19:41:46.338Z,12.98
2024-05-09T19:44:14.636Z,12.93
2024-05-09T19:46:42.642Z,12.89
2024-05-09T19:49:11.103Z,12.86
2024-05-09T19:51:39.923Z,12.85
2024-05-09T19:54:08.248Z,12.82
2024-05-09T19:56:36.574Z,12.86
2024-05-09T19:59:04.705Z,12.83
2024-05-09T20:01:33.056Z,12.81
2024-05-09T20:04:01.474Z,12.74
2024-05-09T20:06:30.470Z,12.69
2024-05-09T20:08:59.336Z,12.66
2024-05-09T20:11:32.658Z,12.67
2024-05-09T20:14:01.169Z,12.65
2024-05-09T20:16:47.100Z,12.65
2024-05-09T20:19:14.960Z,12.62
2024-05-09T20:21:43.702Z,12.56
2024-05-09T20:24:12.160Z,12.57
2024-05-09T20:26:40.114Z,12.59
2024-05-09T20:29:08.273Z,12.56
2024-05-09T20:31:41.759Z,12.56
2024-05-09T20:34:10.291Z,12.56
2024-05-09T20:36:40.978Z,12.55
2024-05-09T20:39:09.270Z,12.51
2024-05-09T20:41:43.433Z,12.49
2024-05-09T20:44:11.715Z,12.49
2024-05-09T20:46:42.277Z,12.46
2024-05-09T20:49:10.588Z,12.44
2024-05-09T20:51:40.858Z,12.38
2024-05-09T20:54:08.806Z,12.32
2024-05-09T20:56:37.891Z,12.29
2024-05-09T20:59:07.325Z,12.28
2024-05-09T21:01:35.688Z,12.31
2024-05-09T21:04:07.628Z,12.34
2024-05-09T21:06:36.130Z,12.32
2024-05-09T21:09:04.468Z,12.27
2024-05-09T21:11:32.795Z,12.22
2024-05-09T21:14:00.977Z,12.20
2024-05-09T21:16:39.282Z,12.18
2024-05-09T21:19:07.290Z,12.14
2024-05-09T21:21:39.705Z,12.16
2024-05-09T21:24:08.430Z,12.20
2024-05-09T21:26:37.083Z,12.23
2024-05-09T21:29:05.507Z,12.21
2024-05-09T21:31:37.019Z,12.21
2024-05-09T21:34:05.299Z,12.22
2024-05-09T21:36:34.007Z,12.19
2024-05-09T21:39:02.186Z,12.19
2024-05-09T21:41:35.333Z,12.19
2024-05-09T21:44:06.723Z,12.18
2024-05-09T21:46:37.283Z,12.15
2024-05-09T21:49:07.908Z,12.16
2024-05-09T21:51:38.582Z,12.20
2024-05-09T21:54:09.373Z,12.24
2024-05-09T21:56:40.431Z,12.24
2024-05-09T21:59:08.774Z,12.21
2024-05-09T22:01:37.251Z,12.21
2024-05-09T22:04:05.827Z,12.20
2024-05-09T22:06:35.099Z,12.19
2024-05-09T22:09:06.712Z,12.17
2024-05-09T22:11:56.556Z,12.13
2024-05-09T22:15:03.777Z,12.13
2024-05-09T22:17:32.197Z,12.12
2024-05-09T22:20:28.827Z,12.10
2024-05-09T22:23:09.736Z,12.06
2024-05-09T22:25:40.835Z,12.03
2024-05-09T22:28:13.005Z,12.01
2024-05-09T22:30:41.446Z,11.99
2024-05-09T22:33:13.333Z,11.94
2024-05-09T22:35:53.912Z,11.92
2024-05-09T22:38:22.273Z,11.90
2024-05-09T22:41:07.642Z,11.92
2024-05-09T22:43:38.339Z,11.94
2024-05-09T22:46:18.020Z,11.98
2024-05-09T22:48:49.224Z,11.96
2024-05-09T22:51:17.579Z,11.94
2024-05-09T22:53:50.453Z,11.92
2024-05-09T22:56:28.480Z,11.87
2024-05-09T22:58:57.124Z,11.84
2024-05-09T23:01:26.781Z,11.80
2024-05-09T23:04:00.352Z,11.77
2024-05-09T23:06:31.355Z,11.76
2024-05-09T23:09:04.452Z,11.74
2024-05-09T23:11:54.583Z,11.73
2024-05-09T23:14:30.701Z,11.72
2024-05-09T23:17:01.120Z,11.70
2024-05-09T23:19:32.081Z,11.68
2024-05-09T23:22:23.403Z,11.65
2024-05-09T23:24:54.848Z,11.65
2024-05-09T23:27:35.188Z,11.62
2024-05-09T23:30:07.688Z,11.61
2024-05-09T23:32:40.667Z,11.60
2024-05-09T23:35:08.887Z,11.59
2024-05-09T23:37:39.484Z,11.57
2024-05-09T23:40:18.146Z,11.56
2024-05-09T23:43:04.736Z,11.54
2024-05-09T23:45:35.773Z,11.54
2024-05-09T23:48:04.793Z,11.52
2024-05-09T23:50:36.894Z,11.50
2024-05-09T23:53:08.641Z,11.46
2024-05-09T23:55:38.394Z,11.43
2024-05-09T23:58:18.428Z,11.41
